Terminal Aerodrome Forecast
Issued by NWS

Home | Current Version | Previous Version | Text Only | Print | Product List | Glossary Off
Versions: 1 2 3 4 5 6 7 8 9 10 11 12

000
FTUS43 KBIS 011700
TAFDIK
TAF
KDIK 011720Z 0118/0218 29029G39KT P6SM BKN120
     FM020200 27017G24KT P6SM SCT120
     FM021200 30025G34KT P6SM BKN025=

USA.gov is the U.S. government's official web portal to all federal, state and local government web resources and services.